sensor_id;sensor_type;location;lat;lon;timestamp;pressure;altitude;pressure_sealevel;temperature
18219;BMP180;9234;49.344;11.120;2023-03-01T00:01:47;98338.00;;;-2.40
18219;BMP180;9234;49.344;11.120;2023-03-01T00:04:16;98339.00;;;-2.40
18219;BMP180;9234;49.344;11.120;2023-03-01T00:06:44;98330.00;;;-2.50
18219;BMP180;9234;49.344;11.120;2023-03-01T00:09:15;98339.00;;;-2.50
18219;BMP180;9234;49.344;11.120;2023-03-01T00:11:45;98336.00;;;-2.50
18219;BMP180;9234;49.344;11.120;2023-03-01T00:14:13;98344.00;;;-2.50
18219;BMP180;9234;49.344;11.120;2023-03-01T00:16:44;98340.00;;;-2.60
18219;BMP180;9234;49.344;11.120;2023-03-01T00:19:16;98344.00;;;-2.60
18219;BMP180;9234;49.344;11.120;2023-03-01T00:21:44;98354.00;;;-2.60
18219;BMP180;9234;49.344;11.120;2023-03-01T00:24:15;98338.00;;;-2.60
18219;BMP180;9234;49.344;11.120;2023-03-01T00:26:43;98351.00;;;-2.60
18219;BMP180;9234;49.344;11.120;2023-03-01T00:29:12;98356.00;;;-2.60
18219;BMP180;9234;49.344;11.120;2023-03-01T00:31:40;98349.00;;;-2.70
18219;BMP180;9234;49.344;11.120;2023-03-01T00:34:09;98347.00;;;-2.60
18219;BMP180;9234;49.344;11.120;2023-03-01T00:36:38;98349.00;;;-2.70
18219;BMP180;9234;49.344;11.120;2023-03-01T00:39:12;98346.00;;;-2.70
18219;BMP180;9234;49.344;11.120;2023-03-01T00:41:43;98341.00;;;-2.70
18219;BMP180;9234;49.344;11.120;2023-03-01T00:44:11;98347.00;;;-2.70
18219;BMP180;9234;49.344;11.120;2023-03-01T00:46:39;98358.00;;;-2.70
18219;BMP180;9234;49.344;11.120;2023-03-01T00:49:08;98342.00;;;-2.60
18219;BMP180;9234;49.344;11.120;2023-03-01T00:51:36;98343.00;;;-2.70
18219;BMP180;9234;49.344;11.120;2023-03-01T00:54:07;98335.00;;;-2.60
18219;BMP180;9234;49.344;11.120;2023-03-01T00:56:36;98335.00;;;-2.60
18219;BMP180;9234;49.344;11.120;2023-03-01T00:59:06;98330.00;;;-2.60
18219;BMP180;9234;49.344;11.120;2023-03-01T01:01:34;98324.00;;;-2.60
18219;BMP180;9234;49.344;11.120;2023-03-01T01:04:05;98321.00;;;-2.60
18219;BMP180;9234;49.344;11.120;2023-03-01T01:06:36;98321.00;;;-2.60
18219;BMP180;9234;49.344;11.120;2023-03-01T01:09:06;98327.00;;;-2.60
18219;BMP180;9234;49.344;11.120;2023-03-01T01:11:35;98316.00;;;-2.60
18219;BMP180;9234;49.344;11.120;2023-03-01T01:14:05;98306.00;;;-2.60
18219;BMP180;9234;49.344;11.120;2023-03-01T01:16:34;98311.00;;;-2.60
18219;BMP180;9234;49.344;11.120;2023-03-01T01:19:02;98300.00;;;-2.60
18219;BMP180;9234;49.344;11.120;2023-03-01T01:21:31;98316.00;;;-2.60
18219;BMP180;9234;49.344;11.120;2023-03-01T01:24:00;98302.00;;;-2.60
18219;BMP180;9234;49.344;11.120;2023-03-01T01:26:32;98292.00;;;-2.60
18219;BMP180;9234;49.344;11.120;2023-03-01T01:29:03;98292.00;;;-2.60
18219;BMP180;9234;49.344;11.120;2023-03-01T01:31:35;98292.00;;;-2.60
18219;BMP180;9234;49.344;11.120;2023-03-01T01:34:07;98285.00;;;-2.60
18219;BMP180;9234;49.344;11.120;2023-03-01T01:36:35;98298.00;;;-2.60
18219;BMP180;9234;49.344;11.120;2023-03-01T01:39:05;98278.00;;;-2.60
18219;BMP180;9234;49.344;11.120;2023-03-01T01:41:33;98275.00;;;-2.60
18219;BMP180;9234;49.344;11.120;2023-03-01T01:44:19;98290.00;;;-2.60
18219;BMP180;9234;49.344;11.120;2023-03-01T01:46:53;98273.00;;;-2.60
18219;BMP180;9234;49.344;11.120;2023-03-01T01:49:32;98283.00;;;-2.70
18219;BMP180;9234;49.344;11.120;2023-03-01T01:52:10;98282.00;;;-2.70
18219;BMP180;9234;49.344;11.120;2023-03-01T01:54:45;98278.00;;;-2.70
18219;BMP180;9234;49.344;11.120;2023-03-01T01:57:20;98271.00;;;-2.70
18219;BMP180;9234;49.344;11.120;2023-03-01T01:59:52;98262.00;;;-2.70
18219;BMP180;9234;49.344;11.120;2023-03-01T02:02:25;98274.00;;;-2.70
18219;BMP180;9234;49.344;11.120;2023-03-01T02:05:03;98264.00;;;-2.70
18219;BMP180;9234;49.344;11.120;2023-03-01T02:07:39;98260.00;;;-2.70
18219;BMP180;9234;49.344;11.120;2023-03-01T02:10:09;98257.00;;;-2.80
18219;BMP180;9234;49.344;11.120;2023-03-01T02:12:39;98267.00;;;-2.80
18219;BMP180;9234;49.344;11.120;2023-03-01T02:15:09;98250.00;;;-2.80
18219;BMP180;9234;49.344;11.120;2023-03-01T02:17:38;98259.00;;;-2.80
18219;BMP180;9234;49.344;11.120;2023-03-01T02:20:18;98252.00;;;-2.80
18219;BMP180;9234;49.344;11.120;2023-03-01T02:22:50;98243.00;;;-2.80
18219;BMP180;9234;49.344;11.120;2023-03-01T02:25:31;98245.00;;;-2.90
18219;BMP180;9234;49.344;11.120;2023-03-01T02:30:42;98226.00;;;-2.90
18219;BMP180;9234;49.344;11.120;2023-03-01T02:33:32;98238.00;;;-2.90
18219;BMP180;9234;49.344;11.120;2023-03-01T02:36:08;98240.00;;;-2.90
18219;BMP180;9234;49.344;11.120;2023-03-01T02:38:38;98233.00;;;-2.90
18219;BMP180;9234;49.344;11.120;2023-03-01T02:41:09;98241.00;;;-2.90
18219;BMP180;9234;49.344;11.120;2023-03-01T02:43:38;98229.00;;;-3.00
18219;BMP180;9234;49.344;11.120;2023-03-01T02:46:15;98235.00;;;-3.00
18219;BMP180;9234;49.344;11.120;2023-03-01T02:48:46;98216.00;;;-3.00
18219;BMP180;9234;49.344;11.120;2023-03-01T02:51:33;98216.00;;;-3.00
18219;BMP180;9234;49.344;11.120;2023-03-01T02:54:14;98207.00;;;-3.00
18219;BMP180;9234;49.344;11.120;2023-03-01T02:56:45;98202.00;;;-3.00
18219;BMP180;9234;49.344;11.120;2023-03-01T02:59:21;98211.00;;;-3.00
18219;BMP180;9234;49.344;11.120;2023-03-01T03:01:51;98202.00;;;-3.10
18219;BMP180;9234;49.344;11.120;2023-03-01T03:04:20;98192.00;;;-3.10
18219;BMP180;9234;49.344;11.120;2023-03-01T03:06:50;98198.00;;;-3.10
18219;BMP180;9234;49.344;11.120;2023-03-01T03:09:19;98196.00;;;-3.10
18219;BMP180;9234;49.344;11.120;2023-03-01T03:11:47;98195.00;;;-3.10
18219;BMP180;9234;49.344;11.120;2023-03-01T03:14:17;98174.00;;;-3.10
18219;BMP180;9234;49.344;11.120;2023-03-01T03:16:50;98180.00;;;-3.10
18219;BMP180;9234;49.344;11.120;2023-03-01T03:19:19;98174.00;;;-3.10
18219;BMP180;9234;49.344;11.120;2023-03-01T03:21:47;98181.00;;;-3.10
18219;BMP180;9234;49.344;11.120;2023-03-01T03:24:16;98171.00;;;-3.20
18219;BMP180;9234;49.344;11.120;2023-03-01T03:26:45;98174.00;;;-3.20
18219;BMP180;9234;49.344;11.120;2023-03-01T03:29:13;98175.00;;;-3.20
18219;BMP180;9234;49.344;11.120;2023-03-01T03:31:41;98175.00;;;-3.20
18219;BMP180;9234;49.344;11.120;2023-03-01T03:34:11;98181.00;;;-3.20
18219;BMP180;9234;49.344;11.120;2023-03-01T03:36:45;98188.00;;;-3.20
18219;BMP180;9234;49.344;11.120;2023-03-01T03:39:13;98180.00;;;-3.20
18219;BMP180;9234;49.344;11.120;2023-03-01T03:41:41;98181.00;;;-3.20
18219;BMP180;9234;49.344;11.120;2023-03-01T03:44:09;98178.00;;;-3.20
18219;BMP180;9234;49.344;11.120;2023-03-01T03:46:37;98170.00;;;-3.20
18219;BMP180;9234;49.344;11.120;2023-03-01T03:49:05;98183.00;;;-3.20
18219;BMP180;9234;49.344;11.120;2023-03-01T03:51:35;98177.00;;;-3.30
18219;BMP180;9234;49.344;11.120;2023-03-01T03:54:03;98179.00;;;-3.30
18219;BMP180;9234;49.344;11.120;2023-03-01T03:56:31;98161.00;;;-3.30
18219;BMP180;9234;49.344;11.120;2023-03-01T03:59:00;98167.00;;;-3.30
18219;BMP180;9234;49.344;11.120;2023-03-01T04:01:28;98171.00;;;-3.30
18219;BMP180;9234;49.344;11.120;2023-03-01T04:03:56;98166.00;;;-3.30
18219;BMP180;9234;49.344;11.120;2023-03-01T04:06:31;98170.00;;;-3.30
18219;BMP180;9234;49.344;11.120;2023-03-01T04:09:00;98170.00;;;-3.40
18219;BMP180;9234;49.344;11.120;2023-03-01T04:11:29;98177.00;;;-3.40
18219;BMP180;9234;49.344;11.120;2023-03-01T04:13:58;98187.00;;;-3.40
18219;BMP180;9234;49.344;11.120;2023-03-01T04:16:27;98173.00;;;-3.40
18219;BMP180;9234;49.344;11.120;2023-03-01T04:18:56;98194.00;;;-3.40
18219;BMP180;9234;49.344;11.120;2023-03-01T04:21:26;98190.00;;;-3.40
18219;BMP180;9234;49.344;11.120;2023-03-01T04:23:54;98186.00;;;-3.40
18219;BMP180;9234;49.344;11.120;2023-03-01T04:26:24;98183.00;;;-3.40
18219;BMP180;9234;49.344;11.120;2023-03-01T04:28:53;98180.00;;;-3.40
18219;BMP180;9234;49.344;11.120;2023-03-01T04:31:22;98179.00;;;-3.40
18219;BMP180;9234;49.344;11.120;2023-03-01T04:33:53;98170.00;;;-3.50
18219;BMP180;9234;49.344;11.120;2023-03-01T04:36:24;98188.00;;;-3.50
18219;BMP180;9234;49.344;11.120;2023-03-01T04:38:54;98180.00;;;-3.50
18219;BMP180;9234;49.344;11.120;2023-03-01T04:41:25;98193.00;;;-3.50
18219;BMP180;9234;49.344;11.120;2023-03-01T04:43:56;98196.00;;;-3.50
18219;BMP180;9234;49.344;11.120;2023-03-01T04:46:27;98190.00;;;-3.50
18219;BMP180;9234;49.344;11.120;2023-03-01T04:48:56;98190.00;;;-3.50
18219;BMP180;9234;49.344;11.120;2023-03-01T04:51:24;98195.00;;;-3.50
18219;BMP180;9234;49.344;11.120;2023-03-01T04:53:53;98189.00;;;-3.50
18219;BMP180;9234;49.344;11.120;2023-03-01T04:56:21;98179.00;;;-3.50
18219;BMP180;9234;49.344;11.120;2023-03-01T04:58:53;98189.00;;;-3.50
18219;BMP180;9234;49.344;11.120;2023-03-01T05:01:22;98170.00;;;-3.50
18219;BMP180;9234;49.344;11.120;2023-03-01T05:03:51;98185.00;;;-3.40
18219;BMP180;9234;49.344;11.120;2023-03-01T05:06:20;98169.00;;;-3.40
18219;BMP180;9234;49.344;11.120;2023-03-01T05:08:49;98172.00;;;-3.40
18219;BMP180;9234;49.344;11.120;2023-03-01T05:11:17;98175.00;;;-3.40
18219;BMP180;9234;49.344;11.120;2023-03-01T05:13:45;98174.00;;;-3.40
18219;BMP180;9234;49.344;11.120;2023-03-01T05:16:15;98174.00;;;-3.40
18219;BMP180;9234;49.344;11.120;2023-03-01T05:18:43;98165.00;;;-3.40
18219;BMP180;9234;49.344;11.120;2023-03-01T05:21:14;98167.00;;;-3.40
18219;BMP180;9234;49.344;11.120;2023-03-01T05:23:44;98162.00;;;-3.40
18219;BMP180;9234;49.344;11.120;2023-03-01T05:26:15;98157.00;;;-3.40
18219;BMP180;9234;49.344;11.120;2023-03-01T05:28:59;98156.00;;;-3.40
18219;BMP180;9234;49.344;11.120;2023-03-01T05:31:29;98159.00;;;-3.30
18219;BMP180;9234;49.344;11.120;2023-03-01T05:33:58;98160.00;;;-3.40
18219;BMP180;9234;49.344;11.120;2023-03-01T05:36:26;98165.00;;;-3.40
18219;BMP180;9234;49.344;11.120;2023-03-01T05:38:54;98164.00;;;-3.40
18219;BMP180;9234;49.344;11.120;2023-03-01T05:41:23;98156.00;;;-3.40
18219;BMP180;9234;49.344;11.120;2023-03-01T05:43:51;98165.00;;;-3.40
18219;BMP180;9234;49.344;11.120;2023-03-01T05:46:19;98175.00;;;-3.30
18219;BMP180;9234;49.344;11.120;2023-03-01T05:48:49;98167.00;;;-3.40
18219;BMP180;9234;49.344;11.120;2023-03-01T05:51:17;98158.00;;;-3.30
18219;BMP180;9234;49.344;11.120;2023-03-01T05:53:45;98148.00;;;-3.40
18219;BMP180;9234;49.344;11.120;2023-03-01T05:56:13;98153.00;;;-3.40
18219;BMP180;9234;49.344;11.120;2023-03-01T05:58:42;98164.00;;;-3.40
18219;BMP180;9234;49.344;11.120;2023-03-01T06:01:11;98160.00;;;-3.40
18219;BMP180;9234;49.344;11.120;2023-03-01T06:03:40;98161.00;;;-3.30
18219;BMP180;9234;49.344;11.120;2023-03-01T06:06:10;98150.00;;;-3.30
18219;BMP180;9234;49.344;11.120;2023-03-01T06:08:38;98157.00;;;-3.30
18219;BMP180;9234;49.344;11.120;2023-03-01T06:11:06;98164.00;;;-3.20
18219;BMP180;9234;49.344;11.120;2023-03-01T06:13:35;98157.00;;;-3.20
18219;BMP180;9234;49.344;11.120;2023-03-01T06:16:05;98162.00;;;-3.20
18219;BMP180;9234;49.344;11.120;2023-03-01T06:18:34;98151.00;;;-3.20
18219;BMP180;9234;49.344;11.120;2023-03-01T06:21:03;98149.00;;;-3.20
18219;BMP180;9234;49.344;11.120;2023-03-01T06:23:33;98156.00;;;-3.20
18219;BMP180;9234;49.344;11.120;2023-03-01T06:26:06;98165.00;;;-3.20
18219;BMP180;9234;49.344;11.120;2023-03-01T06:28:35;98156.00;;;-3.10
18219;BMP180;9234;49.344;11.120;2023-03-01T06:31:04;98166.00;;;-3.10
18219;BMP180;9234;49.344;11.120;2023-03-01T06:33:35;98148.00;;;-3.10
18219;BMP180;9234;49.344;11.120;2023-03-01T06:36:05;98147.00;;;-3.10
18219;BMP180;9234;49.344;11.120;2023-03-01T06:38:34;98148.00;;;-3.00
18219;BMP180;9234;49.344;11.120;2023-03-01T06:41:03;98149.00;;;-3.00
18219;BMP180;9234;49.344;11.120;2023-03-01T06:43:31;98147.00;;;-2.90
18219;BMP180;9234;49.344;11.120;2023-03-01T06:46:00;98148.00;;;-2.90
18219;BMP180;9234;49.344;11.120;2023-03-01T06:48:28;98156.00;;;-2.80
18219;BMP180;9234;49.344;11.120;2023-03-01T06:50:59;98150.00;;;-2.80
18219;BMP180;9234;49.344;11.120;2023-03-01T06:53:27;98146.00;;;-2.70
18219;BMP180;9234;49.344;11.120;2023-03-01T06:55:57;98157.00;;;-2.60
18219;BMP180;9234;49.344;11.120;2023-03-01T06:58:26;98147.00;;;-2.60
18219;BMP180;9234;49.344;11.120;2023-03-01T07:00:55;98162.00;;;-2.50
18219;BMP180;9234;49.344;11.120;2023-03-01T07:03:23;98154.00;;;-2.40
18219;BMP180;9234;49.344;11.120;2023-03-01T07:05:51;98164.00;;;-2.40
18219;BMP180;9234;49.344;11.120;2023-03-01T07:08:20;98145.00;;;-2.30
18219;BMP180;9234;49.344;11.120;2023-03-01T07:10:48;98151.00;;;-2.30
18219;BMP180;9234;49.344;11.120;2023-03-01T07:13:23;98157.00;;;-2.10
18219;BMP180;9234;49.344;11.120;2023-03-01T07:15:52;98144.00;;;-2.10
18219;BMP180;9234;49.344;11.120;2023-03-01T07:18:20;98141.00;;;-2.00
18219;BMP180;9234;49.344;11.120;2023-03-01T07:20:48;98137.00;;;-1.90
18219;BMP180;9234;49.344;11.120;2023-03-01T07:23:17;98137.00;;;-1.80
18219;BMP180;9234;49.344;11.120;2023-03-01T07:25:52;98141.00;;;-1.70
18219;BMP180;9234;49.344;11.120;2023-03-01T07:28:24;98142.00;;;-1.60
18219;BMP180;9234;49.344;11.120;2023-03-01T07:30:53;98136.00;;;-1.50
18219;BMP180;9234;49.344;11.120;2023-03-01T07:33:21;98125.00;;;-1.40
18219;BMP180;9234;49.344;11.120;2023-03-01T07:35:57;98121.00;;;-1.20
18219;BMP180;9234;49.344;11.120;2023-03-01T07:38:26;98122.00;;;-1.10
18219;BMP180;9234;49.344;11.120;2023-03-01T07:40:58;98114.00;;;-1.00
18219;BMP180;9234;49.344;11.120;2023-03-01T07:43:29;98116.00;;;-0.80
18219;BMP180;9234;49.344;11.120;2023-03-01T07:45:59;98123.00;;;-0.70
18219;BMP180;9234;49.344;11.120;2023-03-01T07:48:29;98120.00;;;-0.50
18219;BMP180;9234;49.344;11.120;2023-03-01T07:50:58;98121.00;;;-0.40
18219;BMP180;9234;49.344;11.120;2023-03-01T07:53:28;98106.00;;;-0.30
18219;BMP180;9234;49.344;11.120;2023-03-01T07:56:02;98112.00;;;-0.20
18219;BMP180;9234;49.344;11.120;2023-03-01T07:58:34;98109.00;;;-0.10
18219;BMP180;9234;49.344;11.120;2023-03-01T08:01:04;98100.00;;;0.10
18219;BMP180;9234;49.344;11.120;2023-03-01T08:03:32;98119.00;;;0.20
18219;BMP180;9234;49.344;11.120;2023-03-01T08:06:02;98123.00;;;0.40
18219;BMP180;9234;49.344;11.120;2023-03-01T08:08:33;98125.00;;;0.50
18219;BMP180;9234;49.344;11.120;2023-03-01T08:11:04;98124.00;;;0.70
18219;BMP180;9234;49.344;11.120;2023-03-01T08:13:34;98102.00;;;0.80
18219;BMP180;9234;49.344;11.120;2023-03-01T08:16:04;98119.00;;;0.90
18219;BMP180;9234;49.344;11.120;2023-03-01T08:18:33;98107.00;;;1.00
18219;BMP180;9234;49.344;11.120;2023-03-01T08:21:03;98097.00;;;1.20
18219;BMP180;9234;49.344;11.120;2023-03-01T08:23:32;98098.00;;;1.30
18219;BMP180;9234;49.344;11.120;2023-03-01T08:26:06;98108.00;;;1.40
18219;BMP180;9234;49.344;11.120;2023-03-01T08:28:36;98109.00;;;1.60
18219;BMP180;9234;49.344;11.120;2023-03-01T08:31:14;98105.00;;;1.70
18219;BMP180;9234;49.344;11.120;2023-03-01T08:33:43;98112.00;;;1.80
18219;BMP180;9234;49.344;11.120;2023-03-01T08:36:11;98094.00;;;2.00
18219;BMP180;9234;49.344;11.120;2023-03-01T08:38:39;98102.00;;;2.10
18219;BMP180;9234;49.344;11.120;2023-03-01T08:41:08;98085.00;;;2.30
18219;BMP180;9234;49.344;11.120;2023-03-01T08:43:37;98096.00;;;2.40
18219;BMP180;9234;49.344;11.120;2023-03-01T08:46:05;98095.00;;;2.50
18219;BMP180;9234;49.344;11.120;2023-03-01T08:48:34;98101.00;;;2.60
18219;BMP180;9234;49.344;11.120;2023-03-01T08:51:10;98097.00;;;2.70
18219;BMP180;9234;49.344;11.120;2023-03-01T08:53:39;98086.00;;;2.90
18219;BMP180;9234;49.344;11.120;2023-03-01T08:56:08;98077.00;;;2.90
18219;BMP180;9234;49.344;11.120;2023-03-01T08:58:38;98081.00;;;3.10
18219;BMP180;9234;49.344;11.120;2023-03-01T09:01:08;98081.00;;;3.20
18219;BMP180;9234;49.344;11.120;2023-03-01T09:03:37;98067.00;;;3.30
18219;BMP180;9234;49.344;11.120;2023-03-01T09:06:06;98079.00;;;3.40
18219;BMP180;9234;49.344;11.120;2023-03-01T09:08:36;98082.00;;;3.50
18219;BMP180;9234;49.344;11.120;2023-03-01T09:11:07;98062.00;;;3.70
18219;BMP180;9234;49.344;11.120;2023-03-01T09:13:36;98057.00;;;3.80
18219;BMP180;9234;49.344;11.120;2023-03-01T09:16:08;98061.00;;;3.90
18219;BMP180;9234;49.344;11.120;2023-03-01T09:18:36;98050.00;;;4.00
18219;BMP180;9234;49.344;11.120;2023-03-01T09:21:07;98047.00;;;4.10
18219;BMP180;9234;49.344;11.120;2023-03-01T09:23:37;98064.00;;;4.20
18219;BMP180;9234;49.344;11.120;2023-03-01T09:26:06;98052.00;;;4.30
18219;BMP180;9234;49.344;11.120;2023-03-01T09:28:36;98037.00;;;4.40
18219;BMP180;9234;49.344;11.120;2023-03-01T09:31:06;98035.00;;;4.50
18219;BMP180;9234;49.344;11.120;2023-03-01T09:33:35;98044.00;;;4.70
18219;BMP180;9234;49.344;11.120;2023-03-01T09:36:06;98041.00;;;4.80
18219;BMP180;9234;49.344;11.120;2023-03-01T09:38:35;98037.00;;;4.90
18219;BMP180;9234;49.344;11.120;2023-03-01T09:41:11;98038.00;;;5.10
18219;BMP180;9234;49.344;11.120;2023-03-01T09:43:52;98032.00;;;5.20
18219;BMP180;9234;49.344;11.120;2023-03-01T09:46:25;98035.00;;;5.40
18219;BMP180;9234;49.344;11.120;2023-03-01T09:48:59;98034.00;;;5.50
18219;BMP180;9234;49.344;11.120;2023-03-01T09:51:33;98032.00;;;5.70
18219;BMP180;9234;49.344;11.120;2023-03-01T09:54:04;98041.00;;;5.80
18219;BMP180;9234;49.344;11.120;2023-03-01T09:56:40;98048.00;;;6.00
18219;BMP180;9234;49.344;11.120;2023-03-01T09:59:23;98030.00;;;6.00
18219;BMP180;9234;49.344;11.120;2023-03-01T10:02:01;98036.00;;;6.10
18219;BMP180;9234;49.344;11.120;2023-03-01T10:04:45;98024.00;;;6.20
18219;BMP180;9234;49.344;11.120;2023-03-01T10:07:28;98041.00;;;6.40
18219;BMP180;9234;49.344;11.120;2023-03-01T10:09:58;98028.00;;;6.50
18219;BMP180;9234;49.344;11.120;2023-03-01T10:12:34;98042.00;;;6.70
18219;BMP180;9234;49.344;11.120;2023-03-01T10:15:09;98027.00;;;6.80
18219;BMP180;9234;49.344;11.120;2023-03-01T10:17:47;98040.00;;;7.00
18219;BMP180;9234;49.344;11.120;2023-03-01T10:20:22;98029.00;;;7.20
18219;BMP180;9234;49.344;11.120;2023-03-01T10:22:52;98032.00;;;7.30
18219;BMP180;9234;49.344;11.120;2023-03-01T10:25:42;98039.00;;;7.40
18219;BMP180;9234;49.344;11.120;2023-03-01T10:28:17;98029.00;;;7.50
18219;BMP180;9234;49.344;11.120;2023-03-01T10:30:48;98027.00;;;7.70
18219;BMP180;9234;49.344;11.120;2023-03-01T10:33:24;98015.00;;;7.90
18219;BMP180;9234;49.344;11.120;2023-03-01T10:35:53;98002.00;;;8.10
18219;BMP180;9234;49.344;11.120;2023-03-01T10:38:22;98002.00;;;8.30
18219;BMP180;9234;49.344;11.120;2023-03-01T10:40:55;98000.00;;;8.40
18219;BMP180;9234;49.344;11.120;2023-03-01T10:43:27;97999.00;;;8.60
18219;BMP180;9234;49.344;11.120;2023-03-01T10:45:58;97990.00;;;8.80
18219;BMP180;9234;49.344;11.120;2023-03-01T10:48:28;97993.00;;;9.00
18219;BMP180;9234;49.344;11.120;2023-03-01T10:51:06;97968.00;;;9.10
18219;BMP180;9234;49.344;11.120;2023-03-01T10:53:38;97968.00;;;9.30
18219;BMP180;9234;49.344;11.120;2023-03-01T10:56:10;97962.00;;;9.40
18219;BMP180;9234;49.344;11.120;2023-03-01T10:58:57;97950.00;;;9.60
18219;BMP180;9234;49.344;11.120;2023-03-01T11:01:29;97953.00;;;9.70
18219;BMP180;9234;49.344;11.120;2023-03-01T11:04:13;97954.00;;;9.90
18219;BMP180;9234;49.344;11.120;2023-03-01T11:06:42;97944.00;;;10.10
18219;BMP180;9234;49.344;11.120;2023-03-01T11:09:17;97935.00;;;10.10
18219;BMP180;9234;49.344;11.120;2023-03-01T11:11:52;97936.00;;;10.20
18219;BMP180;9234;49.344;11.120;2023-03-01T11:14:23;97929.00;;;10.40
18219;BMP180;9234;49.344;11.120;2023-03-01T11:17:03;97940.00;;;10.60
18219;BMP180;9234;49.344;11.120;2023-03-01T11:19:33;97927.00;;;10.70
18219;BMP180;9234;49.344;11.120;2023-03-01T11:22:07;97930.00;;;10.90
18219;BMP180;9234;49.344;11.120;2023-03-01T11:24:41;97919.00;;;11.10
18219;BMP180;9234;49.344;11.120;2023-03-01T11:27:21;97926.00;;;11.20
18219;BMP180;9234;49.344;11.120;2023-03-01T11:29:55;97920.00;;;11.10
18219;BMP180;9234;49.344;11.120;2023-03-01T11:32:31;97907.00;;;11.10
18219;BMP180;9234;49.344;11.120;2023-03-01T11:35:10;97912.00;;;11.10
18219;BMP180;9234;49.344;11.120;2023-03-01T11:37:55;97910.00;;;11.20
18219;BMP180;9234;49.344;11.120;2023-03-01T11:40:34;97896.00;;;11.30
18219;BMP180;9234;49.344;11.120;2023-03-01T11:43:14;97897.00;;;11.50
18219;BMP180;9234;49.344;11.120;2023-03-01T11:48:52;97890.00;;;11.70
18219;BMP180;9234;49.344;11.120;2023-03-01T11:51:42;97883.00;;;12.00
18219;BMP180;9234;49.344;11.120;2023-03-01T11:54:26;97892.00;;;12.20
18219;BMP180;9234;49.344;11.120;2023-03-01T11:57:03;97874.00;;;12.30
18219;BMP180;9234;49.344;11.120;2023-03-01T11:59:59;97890.00;;;12.50
18219;BMP180;9234;49.344;11.120;2023-03-01T12:03:29;97870.00;;;12.90
18219;BMP180;9234;49.344;11.120;2023-03-01T12:06:28;97876.00;;;13.30
18219;BMP180;9234;49.344;11.120;2023-03-01T12:09:20;97885.00;;;13.60
18219;BMP180;9234;49.344;11.120;2023-03-01T12:12:22;97860.00;;;13.90
18219;BMP180;9234;49.344;11.120;2023-03-01T12:18:20;97859.00;;;14.60
18219;BMP180;9234;49.344;11.120;2023-03-01T12:21:05;97855.00;;;15.10
18219;BMP180;9234;49.344;11.120;2023-03-01T12:24:07;97851.00;;;15.30
18219;BMP180;9234;49.344;11.120;2023-03-01T12:26:50;97843.00;;;15.50
18219;BMP180;9234;49.344;11.120;2023-03-01T12:29:25;97846.00;;;15.80
18219;BMP180;9234;49.344;11.120;2023-03-01T12:32:26;97838.00;;;16.20
18219;BMP180;9234;49.344;11.120;2023-03-01T12:35:20;97835.00;;;16.40
18219;BMP180;9234;49.344;11.120;2023-03-01T12:37:58;97826.00;;;16.80
18219;BMP180;9234;49.344;11.120;2023-03-01T12:40:47;97818.00;;;17.40
18219;BMP180;9234;49.344;11.120;2023-03-01T12:43:36;97818.00;;;17.70
18219;BMP180;9234;49.344;11.120;2023-03-01T12:46:50;97823.00;;;18.10
18219;BMP180;9234;49.344;11.120;2023-03-01T12:49:26;97805.00;;;18.50
18219;BMP180;9234;49.344;11.120;2023-03-01T12:52:01;97808.00;;;18.50
18219;BMP180;9234;49.344;11.120;2023-03-01T12:54:33;97798.00;;;18.20
18219;BMP180;9234;49.344;11.120;2023-03-01T12:57:16;97798.00;;;18.30
18219;BMP180;9234;49.344;11.120;2023-03-01T13:00:02;97804.00;;;18.70
18219;BMP180;9234;49.344;11.120;2023-03-01T13:02:45;97816.00;;;19.20
18219;BMP180;9234;49.344;11.120;2023-03-01T13:05:34;97806.00;;;19.70
18219;BMP180;9234;49.344;11.120;2023-03-01T13:08:14;97816.00;;;19.80
18219;BMP180;9234;49.344;11.120;2023-03-01T13:10:49;97791.00;;;19.80
18219;BMP180;9234;49.344;11.120;2023-03-01T13:13:24;97794.00;;;20.00
18219;BMP180;9234;49.344;11.120;2023-03-01T13:15:54;97797.00;;;20.30
18219;BMP180;9234;49.344;11.120;2023-03-01T13:18:32;97801.00;;;20.50
18219;BMP180;9234;49.344;11.120;2023-03-01T13:21:03;97791.00;;;20.60
18219;BMP180;9234;49.344;11.120;2023-03-01T13:23:36;97788.00;;;20.70
18219;BMP180;9234;49.344;11.120;2023-03-01T13:26:12;97780.00;;;20.60
18219;BMP180;9234;49.344;11.120;2023-03-01T13:28:56;97786.00;;;20.60
18219;BMP180;9234;49.344;11.120;2023-03-01T13:32:00;97780.00;;;20.80
18219;BMP180;9234;49.344;11.120;2023-03-01T13:34:52;97784.00;;;21.10
18219;BMP180;9234;49.344;11.120;2023-03-01T13:37:27;97776.00;;;21.30
18219;BMP180;9234;49.344;11.120;2023-03-01T13:40:01;97770.00;;;21.60
18219;BMP180;9234;49.344;11.120;2023-03-01T13:42:40;97772.00;;;21.80
18219;BMP180;9234;49.344;11.120;2023-03-01T13:45:26;97760.00;;;21.80
18219;BMP180;9234;49.344;11.120;2023-03-01T13:48:09;97779.00;;;21.70
18219;BMP180;9234;49.344;11.120;2023-03-01T13:50:46;97773.00;;;21.90
18219;BMP180;9234;49.344;11.120;2023-03-01T13:53:20;97771.00;;;21.90
18219;BMP180;9234;49.344;11.120;2023-03-01T13:55:54;97776.00;;;21.60
18219;BMP180;9234;49.344;11.120;2023-03-01T13:58:27;97778.00;;;21.40
18219;BMP180;9234;49.344;11.120;2023-03-01T14:01:00;97776.00;;;21.10
18219;BMP180;9234;49.344;11.120;2023-03-01T14:03:30;97760.00;;;20.50
18219;BMP180;9234;49.344;11.120;2023-03-01T14:06:07;97766.00;;;20.10
18219;BMP180;9234;49.344;11.120;2023-03-01T14:08:52;97776.00;;;19.70
18219;BMP180;9234;49.344;11.120;2023-03-01T14:12:12;97773.00;;;19.20
18219;BMP180;9234;49.344;11.120;2023-03-01T14:14:52;97770.00;;;18.70
18219;BMP180;9234;49.344;11.120;2023-03-01T14:17:49;97762.00;;;18.40
18219;BMP180;9234;49.344;11.120;2023-03-01T14:20:22;97766.00;;;18.80
18219;BMP180;9234;49.344;11.120;2023-03-01T14:22:55;97769.00;;;19.20
18219;BMP180;9234;49.344;11.120;2023-03-01T14:25:28;97779.00;;;19.00
18219;BMP180;9234;49.344;11.120;2023-03-01T14:28:10;97770.00;;;18.60
18219;BMP180;9234;49.344;11.120;2023-03-01T14:30:43;97756.00;;;18.20
18219;BMP180;9234;49.344;11.120;2023-03-01T14:33:23;97771.00;;;17.90
18219;BMP180;9234;49.344;11.120;2023-03-01T14:35:55;97774.00;;;17.70
18219;BMP180;9234;49.344;11.120;2023-03-01T14:38:34;97765.00;;;17.90
18219;BMP180;9234;49.344;11.120;2023-03-01T14:41:08;97761.00;;;18.10
18219;BMP180;9234;49.344;11.120;2023-03-01T14:43:41;97759.00;;;17.80
18219;BMP180;9234;49.344;11.120;2023-03-01T14:46:19;97772.00;;;17.20
18219;BMP180;9234;49.344;11.120;2023-03-01T14:48:52;97753.00;;;16.80
18219;BMP180;9234;49.344;11.120;2023-03-01T14:51:22;97773.00;;;17.10
18219;BMP180;9234;49.344;11.120;2023-03-01T14:53:51;97757.00;;;17.40
18219;BMP180;9234;49.344;11.120;2023-03-01T14:56:19;97762.00;;;17.80